Time;durP1;ratioP1;P1;durP2;ratioP2;P2;SDS_P1;SDS_P2;PMS_P1;PMS_P2;Temp;Humidity;BMP_temperature;BMP_pressure;BME280_temperature;BME280_humidity;BME280_pressure;Samples;Min_cycle;Max_cycle;Signal;HPM_P1;HPM_P2
2021/07/30 00:00:11;;;;;;;10.50;9.55;;;;;;;20.37;65.57;95094.56;4971390;28;20035;-73
2021/07/30 00:02:36;;;;;;;10.63;8.73;;;;;;;20.31;65.63;95093.31;4971402;28;20070;-73
2021/07/30 00:05:02;;;;;;;10.55;9.40;;;;;;;20.18;65.87;95090.88;4971285;28;20077;-74
2021/07/30 00:07:27;;;;;;;8.90;8.20;;;;;;;20.19;66.03;95088.94;4970802;28;20070;-73
2021/07/30 00:09:53;;;;;;;9.07;8.20;;;;;;;20.17;65.96;95089.31;4971269;28;20548;-72
2021/07/30 00:12:18;;;;;;;9.50;7.88;;;;;;;20.20;65.91;95088.56;4971525;28;20026;-72
2021/07/30 00:14:44;;;;;;;8.75;8.05;;;;;;;20.04;66.15;95082.56;4964494;28;20100;-71
2021/07/30 00:17:09;;;;;;;8.75;7.90;;;;;;;20.05;65.87;95097.63;4971028;28;20058;-73
2021/07/30 00:19:34;;;;;;;8.82;8.00;;;;;;;20.04;65.87;95092.59;4971171;28;20451;-72
2021/07/30 00:22:00;;;;;;;8.90;8.30;;;;;;;20.03;65.72;95091.81;4971228;28;20023;-72
2021/07/30 00:24:25;;;;;;;8.60;7.85;;;;;;;20.10;65.51;95097.31;4973018;28;20180;-72
2021/07/30 00:26:50;;;;;;;9.30;8.50;;;;;;;20.08;65.57;95080.72;4970639;28;20528;-72
2021/07/30 00:29:17;;;;;;;9.63;8.82;;;;;;;20.07;65.60;95087.25;4962894;28;20134;-73
2021/07/30 00:31:42;;;;;;;9.52;8.60;;;;;;;20.07;65.42;95081.84;4970952;28;20047;-72
2021/07/30 00:34:08;;;;;;;9.38;8.43;;;;;;;20.09;65.87;95087.66;4970864;28;20053;-73
2021/07/30 00:36:33;;;;;;;9.27;8.38;;;;;;;20.13;65.89;95085.78;4972238;28;20019;-72
2021/07/30 00:38:58;;;;;;;10.25;9.45;;;;;;;20.11;65.47;95081.88;4969522;28;20043;-72
2021/07/30 00:41:24;;;;;;;10.00;9.10;;;;;;;20.12;65.48;95086.16;4970702;28;20059;-72
2021/07/30 00:43:49;;;;;;;8.68;7.97;;;;;;;20.06;66.05;95074.88;4963382;28;20069;-72
2021/07/30 00:46:15;;;;;;;8.85;8.23;;;;;;;20.10;66.30;95083.81;4970072;28;20042;-72
2021/07/30 00:48:42;;;;;;;9.98;7.97;;;;;;;20.10;65.62;95086.50;4972476;28;20492;-71
2021/07/30 00:51:07;;;;;;;10.00;9.20;;;;;;;20.18;65.79;95088.16;4970159;28;20035;-72
2021/07/30 00:53:34;;;;;;;10.70;9.57;;;;;;;20.17;65.38;95092.03;4968977;28;20077;-75
2021/07/30 00:55:59;;;;;;;9.70;8.85;;;;;;;20.18;65.48;95082.78;4968733;28;20510;-72
2021/07/30 00:58:28;;;;;;;9.18;8.48;;;;;;;20.09;65.68;95084.19;4963546;28;20054;-72
2021/07/30 01:00:53;;;;;;;9.45;8.65;;;;;;;20.12;65.36;95089.63;4969944;28;20126;-72
2021/07/30 01:03:19;;;;;;;8.70;7.88;;;;;;;20.02;65.88;95079.47;4972114;28;20023;-71
2021/07/30 01:05:45;;;;;;;9.00;8.10;;;;;;;19.92;66.23;95080.09;4970076;28;20050;-71
2021/07/30 01:08:11;;;;;;;8.98;8.18;;;;;;;19.74;67.22;95085.25;4969838;28;20050;-72
2021/07/30 01:10:36;;;;;;;9.90;9.10;;;;;;;20.10;66.27;95097.31;4970448;28;20093;-71
2021/07/30 01:13:02;;;;;;;9.40;8.45;;;;;;;20.21;65.59;95081.25;4965028;28;20019;-71
2021/07/30 01:15:28;;;;;;;10.13;9.32;;;;;;;20.29;65.39;95080.19;4970938;28;20037;-72
2021/07/30 01:17:53;;;;;;;9.10;8.30;;;;;;;20.33;65.11;95081.03;4970043;28;20512;-72
2021/07/30 01:20:24;;;;;;;9.20;8.50;;;;;;;20.31;65.22;95088.69;4968900;28;20042;-72
2021/07/30 01:22:51;;;;;;;9.55;8.80;;;;;;;20.40;64.82;95093.84;4970229;28;20027;-71
2021/07/30 01:25:16;;;;;;;9.68;8.88;;;;;;;20.49;64.42;95078.16;4968990;28;20034;-72
2021/07/30 01:27:42;;;;;;;10.65;9.18;;;;;;;20.49;64.21;95076.22;4969635;28;20361;-72
2021/07/30 01:30:08;;;;;;;11.00;9.70;;;;;;;20.49;64.39;95076.22;4967004;28;20042;-71
2021/07/30 01:32:33;;;;;;;9.75;8.95;;;;;;;20.53;64.36;95075.50;4970295;28;20057;-71
2021/07/30 01:34:58;;;;;;;10.82;9.73;;;;;;;20.58;64.38;95070.53;4970554;28;20089;-71
2021/07/30 01:37:26;;;;;;;10.00;9.00;;;;;;;20.65;64.52;95076.00;4970083;28;20121;-72
2021/07/30 01:39:52;;;;;;;11.02;9.93;;;;;;;20.66;64.53;95072.16;4970288;28;20495;-71
2021/07/30 01:42:17;;;;;;;10.52;9.70;;;;;;;20.58;64.62;95070.53;4970630;28;20027;-71
2021/07/30 01:44:42;;;;;;;10.55;9.63;;;;;;;20.56;64.57;95070.13;4964684;28;20038;-71
2021/07/30 01:47:09;;;;;;;11.13;10.13;;;;;;;20.52;64.88;95080.09;4969286;28;20600;-70
2021/07/30 01:49:35;;;;;;;11.60;10.70;;;;;;;20.46;64.91;95074.25;4968322;28;20039;-71
2021/07/30 01:52:00;;;;;;;11.60;10.70;;;;;;;20.34;65.26;95062.91;4969838;28;20125;-71
2021/07/30 01:54:25;;;;;;;12.05;11.05;;;;;;;20.26;65.51;95070.13;4971587;28;20070;-71
2021/07/30 01:56:51;;;;;;;10.80;9.80;;;;;;;20.24;65.64;95073.19;4969284;28;20118;-71
2021/07/30 01:59:16;;;;;;;10.05;9.27;;;;;;;20.17;65.70;95070.41;4965000;28;20051;-71
2021/07/30 02:01:41;;;;;;;14.00;10.60;;;;;;;20.07;66.07;95073.75;4969671;28;20102;-72
2021/07/30 02:04:07;;;;;;;12.13;10.93;;;;;;;20.12;65.59;95075.38;4969687;28;20030;-71
2021/07/30 02:06:32;;;;;;;12.52;11.30;;;;;;;20.08;66.09;95069.91;4971291;28;20048;-71
2021/07/30 02:08:59;;;;;;;11.45;10.43;;;;;;;20.06;65.94;95074.88;4968207;28;20070;-73
2021/07/30 02:11:25;;;;;;;10.38;9.60;;;;;;;20.02;66.24;95070.59;4969781;28;20500;-71
2021/07/30 02:16:34;;;;;;;9.30;8.60;;;;;;;19.97;66.74;95083.28;4972840;28;20041;-73
2021/07/30 02:18:59;;;;;;;10.15;9.35;;;;;;;20.10;66.84;95083.81;4973430;28;20030;-71
2021/07/30 02:21:24;;;;;;;11.23;10.25;;;;;;;20.17;66.67;95075.81;4975225;28;20031;-72
2021/07/30 02:23:50;;;;;;;10.13;9.27;;;;;;;20.29;66.24;95092.94;4973174;28;20034;-72
2021/07/30 02:26:15;;;;;;;10.00;9.23;;;;;;;20.19;65.85;95076.22;4972548;28;20062;-73
2021/07/30 02:28:41;;;;;;;9.77;9.07;;;;;;;20.21;66.08;95086.66;4968007;28;20509;-72
2021/07/30 02:31:06;;;;;;;10.45;9.45;;;;;;;20.17;66.29;95092.03;4982978;28;20042;-73
2021/07/30 02:33:31;;;;;;;11.20;10.02;;;;;;;19.87;67.20;95077.72;4974457;28;20043;-73
2021/07/30 02:35:57;;;;;;;10.60;9.60;;;;;;;20.19;66.77;95105.94;4972534;28;20096;-73
2021/07/30 02:38:22;;;;;;;10.55;9.57;;;;;;;20.02;67.63;95094.91;4972883;28;20039;-73
2021/07/30 02:40:47;;;;;;;11.52;10.50;;;;;;;20.06;67.49;95088.38;4973080;28;20046;-72
2021/07/30 02:43:13;;;;;;;10.75;9.27;;;;;;;19.94;68.30;95102.09;4969829;28;20134;-72
2021/07/30 02:45:38;;;;;;;9.88;9.07;;;;;;;19.64;69.21;95092.03;4974367;28;20130;-72
2021/07/30 02:48:04;;;;;;;10.65;9.77;;;;;;;19.25;71.18;95107.59;4971313;28;20631;-72
2021/07/30 02:50:29;;;;;;;10.20;9.25;;;;;;;19.10;71.56;95105.78;4971221;28;20038;-72
2021/07/30 02:52:54;;;;;;;9.85;8.82;;;;;;;19.41;70.83;95108.22;4972598;28;20046;-72
2021/07/30 02:55:20;;;;;;;11.73;9.05;;;;;;;19.91;68.97;95100.94;4972546;28;20355;-72
2021/07/30 02:57:45;;;;;;;10.18;9.27;;;;;;;20.17;67.82;95104.75;4974009;28;20034;-72
2021/07/30 03:00:11;;;;;;;10.18;9.18;;;;;;;20.15;68.24;95107.03;4984883;28;20034;-72
2021/07/30 03:02:36;;;;;;;11.52;9.95;;;;;;;20.40;67.13;95105.41;4991884;28;20046;-73
2021/07/30 03:05:02;;;;;;;10.40;9.50;;;;;;;20.54;66.81;95109.47;4992063;28;20062;-73
2021/07/30 03:07:27;;;;;;;12.40;9.40;;;;;;;20.30;67.47;95110.69;4991365;28;20062;-73
2021/07/30 03:09:53;;;;;;;11.25;9.85;;;;;;;20.11;67.98;95109.66;4991952;28;20037;-72
2021/07/30 03:12:18;;;;;;;11.25;10.25;;;;;;;19.67;69.98;95118.31;4993554;28;20031;-72
2021/07/30 03:14:43;;;;;;;10.98;9.93;;;;;;;19.85;69.20;95109.69;4975086;28;20476;-73
2021/07/30 03:17:09;;;;;;;11.88;10.85;;;;;;;19.50;70.41;95116.09;4971652;28;20241;-72
2021/07/30 03:19:34;;;;;;;11.18;10.15;;;;;;;19.68;70.43;95108.28;4972008;28;20037;-72
2021/07/30 03:22:00;;;;;;;12.55;11.27;;;;;;;19.83;69.33;95115.44;4972058;28;20023;-73
2021/07/30 03:24:25;;;;;;;11.90;10.90;;;;;;;19.60;70.41;95102.00;4971710;28;20033;-72
2021/07/30 03:26:50;;;;;;;12.60;10.55;;;;;;;19.37;70.76;95120.09;4971677;28;20039;-72
2021/07/30 03:29:16;;;;;;;11.77;10.65;;;;;;;19.28;71.35;95123.03;4970578;28;20053;-72
2021/07/30 03:31:41;;;;;;;11.68;10.55;;;;;;;18.97;73.44;95129.41;4979796;28;20481;-73
2021/07/30 03:34:07;;;;;;;11.95;10.93;;;;;;;19.29;71.72;95129.97;4971878;28;20101;-73
2021/07/30 03:36:32;;;;;;;11.25;10.32;;;;;;;19.09;71.29;95125.75;4973512;28;20026;-73
2021/07/30 03:38:58;;;;;;;12.55;11.45;;;;;;;19.18;71.15;95118.22;4971955;28;20054;-72
2021/07/30 03:41:23;;;;;;;11.25;10.35;;;;;;;19.16;71.26;95125.91;4970438;28;20086;-72
2021/07/30 03:43:49;;;;;;;13.23;12.13;;;;;;;19.38;69.99;95121.66;4970985;28;20042;-72
2021/07/30 03:46:14;;;;;;;11.10;10.10;;;;;;;19.45;69.29;95124.47;4979084;28;20054;-71
2021/07/30 03:48:39;;;;;;;12.80;11.55;;;;;;;19.51;68.40;95111.47;4973727;28;20026;-72
2021/07/30 03:51:05;;;;;;;14.27;12.93;;;;;;;19.64;68.05;95096.66;4971822;28;20045;-72
2021/07/30 03:53:30;;;;;;;12.65;11.43;;;;;;;19.71;67.71;95115.66;4971803;28;20125;-72
2021/07/30 03:55:56;;;;;;;12.55;11.30;;;;;;;19.35;68.15;95120.47;4970265;28;20557;-71
2021/07/30 03:58:21;;;;;;;12.63;11.48;;;;;;;19.29;68.75;95129.97;4967525;28;20405;-73
2021/07/30 04:00:47;;;;;;;11.30;10.20;;;;;;;19.42;68.43;95128.66;4965825;28;20416;-70
2021/07/30 04:03:12;;;;;;;11.30;10.38;;;;;;;19.42;68.12;95122.50;4973123;28;20030;-69
2021/07/30 04:05:37;;;;;;;11.27;10.27;;;;;;;19.71;67.50;95108.34;4971175;28;20079;-73
2021/07/30 04:08:04;;;;;;;11.43;10.32;;;;;;;19.78;67.00;95104.19;4969951;28;20027;-70
2021/07/30 04:10:29;;;;;;;11.95;10.85;;;;;;;19.96;66.22;95119.50;4971350;28;20049;-70
2021/07/30 04:12:55;;;;;;;10.15;9.35;;;;;;;20.01;66.00;95129.19;4967987;28;20034;-78
2021/07/30 04:15:20;;;;;;;11.07;10.10;;;;;;;20.21;65.56;95097.44;4968210;28;20031;-79
2021/07/30 04:17:48;;;;;;;10.05;9.15;;;;;;;20.50;64.69;95104.78;4991720;28;20042;-78
2021/07/30 04:20:13;;;;;;;11.77;9.73;;;;;;;20.65;64.10;95113.84;4990548;28;20130;-74
2021/07/30 04:22:39;;;;;;;10.23;9.40;;;;;;;20.86;63.62;95117.94;4991104;28;20129;-83
2021/07/30 04:25:05;;;;;;;10.13;9.05;;;;;;;20.92;63.13;95119.94;4992886;28;20488;-87
2021/07/30 04:27:30;;;;;;;10.00;9.20;;;;;;;20.83;62.76;95099.75;4994543;28;20030;-77
2021/07/30 04:29:55;;;;;;;9.20;8.40;;;;;;;20.95;62.52;95104.91;4971551;28;20521;-84
2021/07/30 04:32:21;;;;;;;12.57;9.68;;;;;;;20.85;62.25;95095.53;4989952;28;20043;-73
2021/07/30 04:34:46;;;;;;;10.63;9.68;;;;;;;20.87;62.12;95109.44;4991114;28;20042;-79
2021/07/30 04:37:12;;;;;;;9.63;8.70;;;;;;;20.99;61.96;95103.81;4989128;28;20552;-71
2021/07/30 04:39:37;;;;;;;10.93;9.82;;;;;;;21.08;61.88;95110.81;4991996;28;20014;-67
2021/07/30 04:42:03;;;;;;;11.10;8.75;;;;;;;21.12;61.76;95114.34;4988623;28;20061;-68
2021/07/30 04:44:29;;;;;;;9.52;8.82;;;;;;;21.13;61.76;95121.28;4974117;28;20043;-67
2021/07/30 04:46:54;;;;;;;10.52;9.38;;;;;;;21.14;61.73;95115.53;4975981;28;20038;-67
2021/07/30 04:49:20;;;;;;;9.93;8.90;;;;;;;21.08;61.45;95089.97;4989924;28;20042;-68
2021/07/30 04:51:45;;;;;;;9.35;8.32;;;;;;;21.12;61.33;95074.53;4991742;28;20495;-67
2021/07/30 04:54:10;;;;;;;8.50;7.70;;;;;;;21.36;61.31;95086.00;4989378;28;20089;-68
2021/07/30 04:56:36;;;;;;;8.02;7.32;;;;;;;21.49;60.71;95089.94;4988935;28;20531;-67
2021/07/30 04:59:01;;;;;;;9.13;8.20;;;;;;;21.70;60.27;95105.56;4978043;28;20412;-67
2021/07/30 05:01:27;;;;;;;8.27;7.40;;;;;;;21.88;60.00;95103.00;4967505;28;20539;-67
2021/07/30 05:03:52;;;;;;;8.55;7.80;;;;;;;21.89;58.96;95094.50;4969829;28;20034;-68
2021/07/30 05:06:19;;;;;;;8.48;7.72;;;;;;;22.08;58.27;95111.66;4971150;28;20134;-68
2021/07/30 05:08:45;;;;;;;8.18;7.38;;;;;;;22.24;58.62;95098.59;4969827;28;20047;-68
2021/07/30 05:11:12;;;;;;;8.07;7.30;;;;;;;22.48;58.22;95099.88;4970047;28;20722;-68
2021/07/30 05:13:39;;;;;;;8.55;7.85;;;;;;;22.59;57.31;95081.72;4968515;28;20054;-68
2021/07/30 05:16:15;;;;;;;8.98;7.32;;;;;;;22.77;56.87;95090.66;4965251;28;20038;-69
2021/07/30 05:18:41;;;;;;;7.57;6.97;;;;;;;23.05;55.89;95108.22;4971936;28;20109;-68
2021/07/30 05:21:09;;;;;;;8.00;7.18;;;;;;;23.03;55.18;95088.81;4970123;28;20031;-69
2021/07/30 05:23:34;;;;;;;9.68;7.32;;;;;;;23.24;54.93;95094.28;4970140;28;20127;-69
2021/07/30 05:26:00;;;;;;;7.75;6.95;;;;;;;23.33;53.85;95083.03;4969902;28;20079;-68
2021/07/30 05:28:28;;;;;;;7.82;7.22;;;;;;;23.66;53.80;95100.94;4969965;28;20085;-68
2021/07/30 05:30:54;;;;;;;10.40;7.07;;;;;;;23.78;53.33;95086.94;4965119;28;20022;-68
2021/07/30 05:33:20;;;;;;;7.78;7.00;;;;;;;23.89;52.30;95083.44;4971964;28;20022;-68
2021/07/30 05:35:46;;;;;;;8.20;7.45;;;;;;;23.92;52.07;95088.09;4969538;28;20115;-69
2021/07/30 05:38:11;;;;;;;8.15;7.35;;;;;;;23.99;52.14;95096.22;4969677;28;20515;-68
2021/07/30 05:40:36;;;;;;;8.13;6.90;;;;;;;23.98;51.78;95081.09;4969627;28;20039;-69
2021/07/30 05:43:02;;;;;;;10.10;7.32;;;;;;;23.92;51.77;95085.38;4969785;28;20562;-68
2021/07/30 05:45:27;;;;;;;7.88;7.28;;;;;;;23.90;52.26;95084.97;4967007;28;20037;-69
2021/07/30 05:47:52;;;;;;;7.85;7.22;;;;;;;23.90;52.21;95088.47;4969916;28;20505;-68
2021/07/30 05:50:18;;;;;;;8.07;6.45;;;;;;;23.97;52.54;95084.97;4972523;28;20045;-77
2021/07/30 05:52:43;;;;;;;7.93;7.15;;;;;;;23.92;52.27;95078.00;4974616;28;20094;-79
2021/07/30 05:55:09;;;;;;;8.40;7.00;;;;;;;23.92;52.16;95077.22;4974963;28;20513;-78
2021/07/30 05:57:34;;;;;;;7.22;6.63;;;;;;;23.95;51.87;95081.88;4976033;28;20054;-77
2021/07/30 06:00:04;;;;;;;7.78;7.15;;;;;;;24.04;51.50;95093.88;4970955;28;20045;-77
2021/07/30 06:02:30;;;;;;;7.78;7.20;;;;;;;23.94;51.86;95072.16;4974308;28;20208;-78
2021/07/30 06:04:55;;;;;;;7.78;6.95;;;;;;;24.04;51.48;95084.97;4972265;28;20125;-73
2021/07/30 06:07:21;;;;;;;6.82;6.15;;;;;;;24.21;51.69;95088.78;4971817;28;20053;-71
2021/07/30 06:09:46;;;;;;;8.00;7.30;;;;;;;24.29;51.59;95093.81;4975207;28;20038;-66
2021/07/30 06:12:11;;;;;;;7.22;6.63;;;;;;;24.35;51.21;95089.56;4973954;28;20046;-70
2021/07/30 06:14:37;;;;;;;7.15;6.65;;;;;;;24.38;50.98;95088.78;4970019;28;20039;-72
2021/07/30 06:17:02;;;;;;;7.65;7.00;;;;;;;24.45;50.98;95079.03;4972573;28;20062;-66
2021/07/30 06:19:27;;;;;;;7.32;6.47;;;;;;;24.54;50.42;95084.84;4972456;28;20035;-66
2021/07/30 06:21:53;;;;;;;9.27;6.93;;;;;;;24.70;50.26;95097.97;4973424;28;20029;-65
2021/07/30 06:24:18;;;;;;;7.47;6.75;;;;;;;24.70;50.24;95087.88;4974994;28;20528;-70
2021/07/30 06:26:43;;;;;;;7.63;7.03;;;;;;;24.76;49.92;95071.91;4972455;28;20042;-66
2021/07/30 06:29:09;;;;;;;7.85;7.15;;;;;;;24.68;50.01;95079.34;4970203;28;20120;-70
2021/07/30 06:31:34;;;;;;;7.13;6.20;;;;;;;24.79;49.68;95077.34;4979568;28;20563;-69
2021/07/30 06:34:00;;;;;;;7.35;6.72;;;;;;;24.89;49.42;95100.22;4973068;28;20031;-70
2021/07/30 06:36:25;;;;;;;7.70;6.95;;;;;;;24.87;49.13;95092.44;4974550;28;20023;-68
2021/07/30 06:38:50;;;;;;;7.72;6.90;;;;;;;25.05;49.64;95097.00;4972760;28;20043;-65
2021/07/30 06:41:17;;;;;;;7.38;6.88;;;;;;;25.11;49.47;95095.44;4972494;28;20039;-66
2021/07/30 06:43:42;;;;;;;8.10;7.28;;;;;;;25.02;50.13;95092.34;4971169;28;20081;-71
2021/07/30 06:46:08;;;;;;;8.30;7.50;;;;;;;25.04;50.31;95098.19;4970126;28;20074;-69
2021/07/30 06:48:33;;;;;;;8.30;7.50;;;;;;;25.07;50.75;95094.69;4974469;28;20027;-68
2021/07/30 06:50:59;;;;;;;8.75;8.05;;;;;;;25.07;50.93;95091.97;4972534;28;20559;-66
2021/07/30 06:53:24;;;;;;;8.18;7.47;;;;;;;25.16;51.20;95095.03;4972359;28;20054;-64
2021/07/30 06:55:49;;;;;;;8.43;7.57;;;;;;;25.30;51.28;95100.38;4970925;28;20043;-66
2021/07/30 06:58:15;;;;;;;8.00;7.40;;;;;;;25.40;51.44;95096.81;4972287;28;20038;-67
2021/07/30 07:00:40;;;;;;;7.70;7.10;;;;;;;25.53;51.23;95094.34;4972378;28;20076;-67
2021/07/30 07:03:05;;;;;;;7.68;7.10;;;;;;;25.66;51.48;95087.25;4972150;28;20545;-67
2021/07/30 07:05:33;;;;;;;9.43;7.45;;;;;;;25.83;51.79;95087.53;4972105;28;20046;-67
2021/07/30 07:07:58;;;;;;;7.38;6.75;;;;;;;25.95;51.15;95086.25;4972133;28;20559;-67
2021/07/30 07:10:23;;;;;;;7.50;6.78;;;;;;;25.95;50.56;95080.78;4972331;28;20042;-68
2021/07/30 07:12:49;;;;;;;7.20;6.70;;;;;;;26.07;50.01;95077.56;4970962;28;20035;-67
2021/07/30 07:15:14;;;;;;;7.72;6.78;;;;;;;26.28;49.69;95082.78;4972504;28;20526;-68
2021/07/30 07:17:39;;;;;;;6.93;6.43;;;;;;;26.34;49.49;95070.25;4971622;28;20074;-68
2021/07/30 07:20:05;;;;;;;7.28;6.68;;;;;;;26.50;49.11;95077.13;4972031;28;20489;-68
2021/07/30 07:22:31;;;;;;;7.32;6.65;;;;;;;26.61;49.17;95077.75;4972009;28;20074;-68
2021/07/30 07:24:57;;;;;;;9.75;7.22;;;;;;;26.01;50.13;95081.91;4971818;28;20054;-68
2021/07/30 07:27:22;;;;;;;7.00;6.30;;;;;;;26.10;50.99;95074.81;4973661;28;20050;-69
2021/07/30 07:29:48;;;;;;;6.97;6.43;;;;;;;26.47;49.88;95076.00;4971352;28;20435;-68
2021/07/30 07:32:13;;;;;;;6.93;6.35;;;;;;;26.67;49.67;95067.97;4971870;28;20031;-68
2021/07/30 07:34:38;;;;;;;7.50;6.80;;;;;;;26.73;49.26;95068.28;4972168;28;20039;-68
2021/07/30 07:37:04;;;;;;;7.25;6.57;;;;;;;26.93;49.42;95072.66;4971525;28;20073;-68
2021/07/30 07:39:30;;;;;;;7.82;6.78;;;;;;;27.05;49.38;95059.63;4973654;28;20027;-68
2021/07/30 07:41:57;;;;;;;7.57;6.88;;;;;;;27.22;49.05;95058.63;4972113;28;20109;-69
2021/07/30 07:44:22;;;;;;;6.93;6.18;;;;;;;27.28;48.15;95062.44;4969215;28;20046;-70
2021/07/30 07:46:48;;;;;;;7.13;6.45;;;;;;;27.43;48.20;95062.97;4965627;28;20039;-78
2021/07/30 07:49:14;;;;;;;7.38;6.88;;;;;;;27.56;48.02;95068.63;4972868;28;20031;-76
2021/07/30 07:51:40;;;;;;;7.30;6.80;;;;;;;27.66;47.57;95062.22;4975067;28;20030;-80
2021/07/30 07:54:05;;;;;;;6.75;6.25;;;;;;;27.43;47.10;95052.81;4972626;28;20042;-76
2021/07/30 07:56:31;;;;;;;7.45;6.85;;;;;;;27.37;47.67;95062.66;4970770;28;20050;-76
2021/07/30 07:58:57;;;;;;;6.60;6.20;;;;;;;25.74;51.26;95047.09;4972316;28;20043;-75
2021/07/30 08:01:22;;;;;;;8.80;6.50;;;;;;;24.93;54.72;95078.41;4964478;28;20042;-75
2021/07/30 08:03:47;;;;;;;7.15;6.65;;;;;;;25.08;54.51;95077.19;4972075;28;20481;-77
2021/07/30 08:06:17;;;;;;;7.25;6.60;;;;;;;25.29;53.76;95068.88;4973591;28;20027;-75
2021/07/30 08:08:43;;;;;;;6.72;6.20;;;;;;;24.82;53.64;95079.25;4971635;28;20085;-75
2021/07/30 08:11:09;;;;;;;6.85;6.43;;;;;;;25.75;52.33;95075.16;4971699;28;20050;-75
2021/07/30 08:13:34;;;;;;;6.82;6.32;;;;;;;26.51;50.82;95075.94;4971937;28;20181;-75
2021/07/30 08:15:59;;;;;;;6.82;6.18;;;;;;;26.90;49.70;95067.25;4969348;28;20039;-75
2021/07/30 08:18:25;;;;;;;7.35;6.82;;;;;;;26.28;50.61;95069.16;4973223;28;20065;-75
2021/07/30 08:20:50;;;;;;;6.95;6.45;;;;;;;26.69;50.16;95071.03;4971925;28;20050;-75
2021/07/30 08:23:15;;;;;;;6.70;6.20;;;;;;;26.86;49.21;95059.09;4970326;28;20485;-75
2021/07/30 08:25:41;;;;;;;7.13;6.63;;;;;;;26.53;49.61;95063.44;4969979;28;20039;-75
2021/07/30 08:28:06;;;;;;;7.53;6.75;;;;;;;24.96;54.51;95075.69;4971689;28;20037;-75
2021/07/30 08:30:31;;;;;;;7.15;6.55;;;;;;;25.77;52.07;95062.66;4967071;28;20056;-76
2021/07/30 08:32:58;;;;;;;7.00;6.45;;;;;;;25.03;53.91;95056.59;4979247;28;20070;-75
2021/07/30 08:35:23;;;;;;;6.38;5.88;;;;;;;25.98;51.37;95085.44;4971045;28;20118;-75
2021/07/30 08:37:48;;;;;;;6.07;5.70;;;;;;;26.81;49.45;95061.50;4970970;28;20445;-75
2021/07/30 08:40:14;;;;;;;5.78;5.38;;;;;;;27.24;48.77;95061.72;4970110;28;20078;-75
2021/07/30 08:42:40;;;;;;;6.97;6.35;;;;;;;27.58;48.13;95063.50;4973354;28;20431;-75
2021/07/30 08:45:06;;;;;;;6.38;5.88;;;;;;;27.71;47.24;95064.50;4966637;28;20031;-77
2021/07/30 08:47:31;;;;;;;6.47;6.00;;;;;;;27.63;47.72;95063.81;4969206;28;20122;-76
2021/07/30 08:49:57;;;;;;;7.32;5.63;;;;;;;27.94;47.33;95050.03;4971334;28;20122;-76
2021/07/30 08:52:31;;;;;;;6.50;5.90;;;;;;;28.18;47.04;95053.50;4971287;28;20038;-76
2021/07/30 08:54:57;;;;;;;7.57;5.90;;;;;;;28.20;45.99;95037.44;4970057;28;20031;-77
2021/07/30 08:57:23;;;;;;;7.28;6.50;;;;;;;28.48;45.93;95058.78;4972521;28;20402;-74
2021/07/30 08:59:48;;;;;;;6.68;6.18;;;;;;;28.57;45.95;95052.00;4968299;28;20073;-75
2021/07/30 09:02:13;;;;;;;6.72;6.22;;;;;;;28.61;45.21;95037.06;4967867;28;20039;-74
2021/07/30 09:04:39;;;;;;;7.10;6.60;;;;;;;27.18;48.38;95027.88;4969413;28;20121;-74
2021/07/30 09:07:04;;;;;;;7.47;6.88;;;;;;;27.06;49.63;95064.66;4970528;28;20022;-74
2021/07/30 09:09:31;;;;;;;6.85;6.45;;;;;;;27.57;47.25;95042.84;4972627;28;20103;-74
2021/07/30 09:11:59;;;;;;;6.80;6.22;;;;;;;26.31;49.91;95064.81;4970648;28;20046;-75
2021/07/30 09:14:43;;;;;;;6.63;6.07;;;;;;;26.82;48.25;95052.94;4985574;28;20439;-74
2021/07/30 09:17:09;;;;;;;6.30;5.78;;;;;;;27.52;46.38;95046.81;4966588;28;20045;-75
2021/07/30 09:19:35;;;;;;;6.78;6.18;;;;;;;27.92;46.45;95049.69;4970549;28;20028;-75
2021/07/30 09:22:03;;;;;;;6.85;6.35;;;;;;;28.11;46.05;95034.50;4970348;28;20027;-74
2021/07/30 09:24:40;;;;;;;6.97;6.28;;;;;;;28.54;43.41;95047.34;4970922;28;20019;-75
2021/07/30 09:27:10;;;;;;;6.45;5.95;;;;;;;27.23;45.58;95052.00;4968990;28;20620;-74
2021/07/30 09:29:37;;;;;;;6.82;6.20;;;;;;;26.62;46.07;95036.44;4969360;28;20051;-75
2021/07/30 09:32:05;;;;;;;6.75;6.28;;;;;;;26.59;46.14;95041.94;4972676;28;20039;-75
2021/07/30 09:34:35;;;;;;;6.53;5.97;;;;;;;26.66;46.31;95031.69;4987969;28;20034;-75
2021/07/30 09:37:03;;;;;;;6.35;5.85;;;;;;;26.28;46.59;95047.34;4988394;28;20552;-74
2021/07/30 09:39:38;;;;;;;6.93;6.38;;;;;;;25.81;48.19;95036.16;4991817;28;20054;-75
2021/07/30 09:42:14;;;;;;;6.20;5.70;;;;;;;26.43;48.14;95029.66;4990109;28;20468;-75
2021/07/30 09:44:52;;;;;;;6.40;5.85;;;;;;;26.34;47.77;95032.06;4989928;28;20038;-76
2021/07/30 09:47:28;;;;;;;6.65;6.10;;;;;;;27.14;46.03;95032.63;4967672;28;20039;-74
2021/07/30 09:50:04;;;;;;;6.53;5.90;;;;;;;26.36;47.14;95027.00;4969084;28;20039;-74
2021/07/30 09:52:33;;;;;;;6.75;6.15;;;;;;;27.21;46.18;95027.03;4970258;28;20397;-76
2021/07/30 09:55:07;;;;;;;6.88;6.32;;;;;;;27.71;44.63;95018.06;4968954;28;20030;-75
2021/07/30 09:57:34;;;;;;;6.60;6.10;;;;;;;28.25;44.11;95023.28;4971927;28;20023;-75
2021/07/30 10:00:11;;;;;;;6.00;5.60;;;;;;;28.55;43.01;95010.59;4968729;28;20031;-74
2021/07/30 10:02:42;;;;;;;6.18;5.68;;;;;;;28.75;42.10;95014.06;4966390;28;20062;-74
2021/07/30 10:05:10;;;;;;;5.90;5.15;;;;;;;26.47;44.86;95015.22;4989505;28;20030;-74
2021/07/30 10:07:37;;;;;;;6.53;6.00;;;;;;;27.48;42.80;95007.88;4988719;28;20504;-74
2021/07/30 10:12:32;;;;;;;6.63;6.07;;;;;;;28.14;41.90;94993.41;4991172;28;20027;-74
2021/07/30 10:15:03;;;;;;;6.78;5.50;;;;;;;28.47;42.35;94985.34;4985551;28;20044;-74
2021/07/30 10:17:33;;;;;;;6.70;6.10;;;;;;;28.79;42.31;94987.38;4968219;28;20035;-74
2021/07/30 10:20:02;;;;;;;6.00;5.57;;;;;;;28.99;42.49;94999.06;4968522;28;20039;-73
2021/07/30 10:22:52;;;;;;;6.45;5.90;;;;;;;29.22;42.69;94986.41;4969767;28;20050;-74
2021/07/30 10:25:21;;;;;;;5.95;5.35;;;;;;;29.46;41.57;94989.72;4968564;28;20037;-74
2021/07/30 10:27:47;;;;;;;7.53;5.80;;;;;;;29.55;41.10;94970.75;4969874;28;20033;-74
2021/07/30 10:30:15;;;;;;;5.97;5.00;;;;;;;29.67;40.78;94988.44;4967556;28;20043;-76
2021/07/30 10:32:57;;;;;;;6.15;5.38;;;;;;;29.70;40.33;94982.13;4968002;28;20050;-74
2021/07/30 10:35:28;;;;;;;5.53;5.13;;;;;;;29.89;40.84;94983.16;4972900;28;20086;-74
2021/07/30 10:38:26;;;;;;;5.53;5.07;;;;;;;29.98;40.38;94977.81;4971500;28;20039;-75
2021/07/30 10:40:55;;;;;;;6.97;5.93;;;;;;;29.58;39.93;94974.59;4960717;28;20396;-76
2021/07/30 10:43:20;;;;;;;5.80;5.38;;;;;;;29.81;38.91;94960.66;4971795;28;20094;-74
2021/07/30 10:46:08;;;;;;;5.80;5.28;;;;;;;30.00;37.94;94972.69;4972868;28;20035;-75
2021/07/30 10:48:37;;;;;;;6.30;5.70;;;;;;;28.88;39.29;94981.31;4972926;28;20050;-74
2021/07/30 10:51:27;;;;;;;5.82;5.43;;;;;;;29.12;39.14;94965.53;4970334;28;20070;-75
2021/07/30 10:53:52;;;;;;;6.25;5.80;;;;;;;28.06;40.87;94966.63;4971645;28;20142;-74
2021/07/30 10:56:17;;;;;;;7.13;6.18;;;;;;;28.40;40.48;94958.91;4972627;28;20677;-75
2021/07/30 10:58:43;;;;;;;6.75;6.15;;;;;;;28.72;39.32;94962.91;4972831;28;20039;-74
2021/07/30 11:01:10;;;;;;;6.30;5.72;;;;;;;29.34;38.63;94952.84;4971710;28;20141;-73
2021/07/30 11:03:53;;;;;;;6.10;5.60;;;;;;;28.84;39.83;94958.72;4982359;28;20019;-75
2021/07/30 11:06:29;;;;;;;6.38;5.80;;;;;;;28.42;39.37;94944.81;4972498;28;20047;-74
2021/07/30 11:11:45;;;;;;;6.43;5.93;;;;;;;29.32;38.80;94949.00;4972993;28;20039;-75
2021/07/30 11:14:14;;;;;;;5.60;5.20;;;;;;;29.46;38.14;94952.13;4972514;28;20038;-74
2021/07/30 11:16:42;;;;;;;5.97;5.50;;;;;;;29.76;37.85;94950.22;4963649;28;20070;-74
2021/07/30 11:19:08;;;;;;;5.63;5.20;;;;;;;30.28;37.11;94930.75;4971098;28;20563;-74
2021/07/30 11:21:34;;;;;;;5.90;5.50;;;;;;;30.62;36.61;94934.84;4973112;28;20023;-74
2021/07/30 11:24:01;;;;;;;5.70;5.30;;;;;;;30.70;36.19;94936.19;4972116;28;20100;-74
2021/07/30 11:26:29;;;;;;;5.90;5.50;;;;;;;29.58;36.82;94947.94;4972171;28;20070;-74
2021/07/30 11:29:05;;;;;;;5.55;5.25;;;;;;;29.98;36.05;94936.69;4972290;28;20182;-74
2021/07/30 11:31:30;;;;;;;5.85;5.55;;;;;;;29.82;36.57;94932.03;4964105;28;20039;-73
2021/07/30 11:33:55;;;;;;;5.97;5.40;;;;;;;29.29;38.76;94936.94;4981845;28;20015;-75